ěÝzenÝ letovÚho provozu ╚eskÚ republiky
Letiste: LKNA Aktualizace: 17.04.2021 20:28:24  UTC
 METAR LKNA 17.04. 20:30 ...
METAR LKNA 172030Z 32007KT 5000 BR OVC017 02/01 Q1019 RMK WHT=
 TAF LKNA 17.04. 17:00 ...
TAF LKNA 171700Z 1718/1818 34006KT 9999 BKN012 OVC016      TEMPO 1718/1808 6000 RA OVC010      PROB40 1722/1808 2000 DZ BR OVC004      BECMG 1810/1812 03008KT SCT015 BKN025=